Terminal Aerodrome Forecast
Issued by NWS Cleveland, OH

Home | Current Version | Previous Version | Graphics & Text | Print | Product List | Glossary On
Versions: 1 2 3 4 5 6 7 8 9 10 11 12 13 14 15 16 17 18 19 20 21 22 23
000
FTUS41 KCLE 250500
TAFTOL
TAF
KTOL 250535Z 2506/2606 07008KT P6SM SCT120 BKN200
     FM250800 12010KT P6SM SCT025 OVC045
      TEMPO 2508/2510 4SM -FZRA BR OVC025
     FM251000 13011KT 4SM -RA BR OVC025 WS015/18045KT
     FM251100 15012KT 2SM -RA BR OVC010 WS015/20050KT
     FM251400 24015G25KT P6SM BKN020 OVC045
     FM251800 25020G32KT P6SM SCT045
     FM252200 25014G20KT P6SM BKN250
     FM260300 24005KT P6SM BKN100 OVC250=

USA.gov is the U.S. government's official web portal to all federal, state and local government web resources and services.